Time;durP1;ratioP1;P1;durP2;ratioP2;P2;SDS_P1;SDS_P2;PMS_P1;PMS_P2;Temp;Humidity;BMP_temperature;BMP_pressure;BME280_temperature;BME280_humidity;BME280_pressure;Samples;Min_cycle;Max_cycle;Signal;HPM_P1;HPM_P2
2023/04/04 00:00:33;;;;;;;3.20;1.70;;;;;;;-0.36;75.71;98988.47;5112197;28;20577;-87
2023/04/04 00:03:00;;;;;;;2.47;1.80;;;;;;;-0.46;76.32;98979.94;5112351;28;20590;-86
2023/04/04 00:05:27;;;;;;;4.03;1.90;;;;;;;-0.45;76.77;98986.00;5112084;28;20241;-86
2023/04/04 00:07:53;;;;;;;1.60;1.50;;;;;;;-0.53;77.71;98988.69;5112659;28;20297;-86
2023/04/04 00:10:21;;;;;;;2.83;1.90;;;;;;;-0.52;78.02;98984.31;5111504;28;20209;-86
2023/04/04 00:12:48;;;;;;;2.00;1.80;;;;;;;-0.64;79.02;98979.28;5112184;28;20229;-85
2023/04/04 00:15:14;;;;;;;2.67;2.10;;;;;;;-0.56;78.67;98977.47;5111897;28;20227;-86
2023/04/04 00:17:41;;;;;;;2.37;1.73;;;;;;;-0.59;78.97;98982.69;5111843;28;20217;-86
2023/04/04 00:20:08;;;;;;;2.60;1.97;;;;;;;-0.65;79.47;98972.38;5111684;28;20210;-86
2023/04/04 00:22:35;;;;;;;2.90;1.83;;;;;;;-0.74;80.46;98978.53;5111752;28;20210;-86
2023/04/04 00:25:01;;;;;;;3.27;2.03;;;;;;;-0.72;80.22;98973.31;5111642;28;20254;-86
2023/04/04 00:27:30;;;;;;;3.50;1.83;;;;;;;-0.72;79.86;98973.31;5111852;28;20209;-85
2023/04/04 00:29:56;;;;;;;2.27;2.07;;;;;;;-0.77;81.02;98972.50;5110857;28;20206;-86
2023/04/04 00:32:23;;;;;;;1.83;1.73;;;;;;;-0.89;82.07;98976.13;5115091;28;20217;-85
2023/04/04 00:34:52;;;;;;;3.40;1.77;;;;;;;-0.95;82.33;98983.09;5115280;28;20692;-85
2023/04/04 00:37:18;;;;;;;3.93;1.90;;;;;;;-1.02;83.13;98978.84;5115506;28;20287;-86
2023/04/04 00:39:45;;;;;;;3.47;1.80;;;;;;;-1.08;83.65;98977.19;5117524;28;20218;-85
2023/04/04 00:42:11;;;;;;;3.57;2.23;;;;;;;-1.13;83.87;98968.59;5135654;28;20221;-84
2023/04/04 00:44:39;;;;;;;3.60;2.20;;;;;;;-1.18;84.17;98970.34;5140848;28;20237;-86
2023/04/04 00:47:06;;;;;;;4.27;2.10;;;;;;;-1.16;84.12;98962.56;5132722;28;20202;-86
2023/04/04 00:49:33;;;;;;;3.40;2.10;;;;;;;-1.20;84.72;98955.69;5115980;28;20229;-85
2023/04/04 00:51:59;;;;;;;3.80;2.10;;;;;;;-1.13;83.86;98959.94;5118318;28;20206;-85
2023/04/04 00:54:26;;;;;;;3.10;2.30;;;;;;;-1.10;83.27;98959.91;5117061;28;20229;-86
2023/04/04 00:56:54;;;;;;;2.47;1.97;;;;;;;-1.04;81.86;98946.88;5115325;28;20207;-86
2023/04/04 00:59:21;;;;;;;1.83;1.67;;;;;;;-1.02;81.26;98942.53;5111531;28;20550;-86
2023/04/04 01:01:49;;;;;;;2.30;1.80;;;;;;;-1.06;81.70;98943.44;5111823;28;20206;-86
2023/04/04 01:04:16;;;;;;;2.63;2.20;;;;;;;-1.01;82.07;98942.50;5112714;28;20222;-86
2023/04/04 01:06:43;;;;;;;2.20;2.00;;;;;;;-0.92;81.16;98938.97;5115015;28;20202;-86
2023/04/04 01:09:09;;;;;;;4.90;2.03;;;;;;;-0.84;80.08;98940.59;5114349;28;20206;-86
2023/04/04 01:11:36;;;;;;;2.90;1.70;;;;;;;-0.80;78.68;98926.69;5114807;28;20221;-85
2023/04/04 01:14:02;;;;;;;2.40;1.90;;;;;;;-0.81;78.19;98929.31;5114517;28;20624;-85
2023/04/04 01:16:29;;;;;;;2.87;1.60;;;;;;;-0.86;78.36;98920.72;5114914;28;20218;-85
2023/04/04 01:18:57;;;;;;;3.53;1.73;;;;;;;-0.90;78.47;98929.41;5114783;28;20202;-86
2023/04/04 01:21:24;;;;;;;4.90;2.27;;;;;;;-0.87;77.94;98925.06;5114904;28;20559;-86
2023/04/04 01:23:59;;;;;;;2.83;1.97;;;;;;;-0.79;77.70;98922.38;5114827;28;20611;-86
2023/04/04 01:26:27;;;;;;;5.03;2.30;;;;;;;-0.80;77.03;98920.66;5114465;28;20221;-85
2023/04/04 01:28:54;;;;;;;3.60;1.90;;;;;;;-0.77;76.46;98920.59;5114881;28;20209;-85
2023/04/04 01:31:28;;;;;;;2.53;2.10;;;;;;;-0.87;76.67;98919.84;5113347;28;20665;-86
2023/04/04 01:34:00;;;;;;;2.73;1.90;;;;;;;-0.93;77.13;98913.91;5114438;28;20235;-85
2023/04/04 01:36:32;;;;;;;3.17;2.10;;;;;;;-1.04;77.47;98926.13;5114429;28;20683;-85
2023/04/04 01:39:04;;;;;;;2.20;1.83;;;;;;;-0.93;76.79;98924.28;5114207;28;20213;-85
2023/04/04 01:41:33;;;;;;;2.83;1.87;;;;;;;-0.94;76.44;98915.63;5113601;28;20691;-86
2023/04/04 01:44:00;;;;;;;4.97;2.33;;;;;;;-1.04;77.69;98913.16;5114212;28;20229;-85
2023/04/04 01:46:27;;;;;;;3.63;1.97;;;;;;;-1.20;79.46;98927.16;5114432;28;20268;-85
2023/04/04 01:48:53;;;;;;;3.10;1.97;;;;;;;-1.34;80.93;98932.50;5114351;28;20203;-85
2023/04/04 01:51:21;;;;;;;2.60;2.13;;;;;;;-1.38;81.78;98929.94;5113252;28;20723;-86
2023/04/04 01:53:47;;;;;;;2.67;2.40;;;;;;;-1.37;82.05;98936.81;5113774;28;20241;-86
2023/04/04 01:56:14;;;;;;;2.70;2.50;;;;;;;-1.51;83.58;98936.97;5113963;28;20206;-85
2023/04/04 01:58:42;;;;;;;3.20;2.33;;;;;;;-1.57;83.85;98936.16;5114145;28;20232;-85
2023/04/04 02:01:08;;;;;;;2.97;2.60;;;;;;;-1.61;85.01;98947.44;5113341;28;20692;-85
2023/04/04 02:03:35;;;;;;;3.67;2.43;;;;;;;-1.68;86.27;98953.53;5113707;28;20206;-83
2023/04/04 02:06:01;;;;;;;3.40;2.43;;;;;;;-1.69;87.26;98955.28;5146154;22;20233;-86
2023/04/04 02:08:28;;;;;;;4.63;2.50;;;;;;;-1.75;87.81;98950.13;5134225;27;20216;-85
2023/04/04 02:10:57;;;;;;;2.83;2.40;;;;;;;-1.76;88.51;98952.72;5133316;27;20618;-86
2023/04/04 02:13:23;;;;;;;2.70;2.50;;;;;;;-1.78;89.08;98944.97;5133862;27;20209;-86
2023/04/04 02:15:52;;;;;;;3.23;2.30;;;;;;;-1.76;88.35;98945.84;5133821;27;20226;-85
2023/04/04 02:18:19;;;;;;;4.83;2.63;;;;;;;-1.63;87.04;98943.97;5133729;27;20206;-85
2023/04/04 02:20:45;;;;;;;3.73;2.70;;;;;;;-1.53;85.76;98940.44;5132747;27;20220;-85
2023/04/04 02:23:11;;;;;;;2.53;2.33;;;;;;;-1.53;85.99;98945.63;5133736;27;20202;-85
2023/04/04 02:25:38;;;;;;;3.27;2.67;;;;;;;-1.60;86.33;98944.81;5133543;27;20225;-85
2023/04/04 02:28:04;;;;;;;3.07;2.60;;;;;;;-1.70;87.48;98942.31;5133578;27;20285;-85
2023/04/04 02:30:31;;;;;;;3.57;2.37;;;;;;;-1.78;88.43;98944.13;5132851;27;20212;-87
2023/04/04 02:32:59;;;;;;;3.60;2.70;;;;;;;-1.89;88.89;98945.94;5133485;27;20210;-85
2023/04/04 02:35:26;;;;;;;2.80;2.50;;;;;;;-1.96;89.76;98950.28;5133140;27;20237;-85
2023/04/04 02:37:52;;;;;;;4.30;2.40;;;;;;;-2.03;89.97;98958.13;5133475;27;20288;-85
2023/04/04 02:40:19;;;;;;;4.90;2.70;;;;;;;-2.07;91.36;98956.41;5132782;27;20213;-86
2023/04/04 02:42:45;;;;;;;2.83;2.47;;;;;;;-2.04;91.18;98951.19;5133179;27;20255;-86
2023/04/04 02:45:13;;;;;;;4.30;2.53;;;;;;;-2.03;91.46;98958.13;5133014;27;20711;-85
2023/04/04 02:47:40;;;;;;;2.67;2.40;;;;;;;-2.03;91.05;98952.94;5133208;27;20286;-85
2023/04/04 02:50:09;;;;;;;4.90;2.30;;;;;;;-2.02;90.58;98952.06;5132427;27;20569;-86
2023/04/04 02:52:35;;;;;;;3.60;2.40;;;;;;;-2.05;91.19;98955.53;5133040;27;20232;-85
2023/04/04 02:55:03;;;;;;;4.53;2.80;;;;;;;-2.08;91.45;98946.94;5132207;27;20233;-85
2023/04/04 02:57:29;;;;;;;2.70;2.50;;;;;;;-2.11;91.34;98945.22;5133078;27;20236;-85
2023/04/04 02:59:56;;;;;;;2.70;2.30;;;;;;;-2.10;91.81;98946.94;5132281;27;20212;-85
2023/04/04 03:02:23;;;;;;;2.57;2.37;;;;;;;-2.13;91.95;98943.50;5132607;27;20241;-85
2023/04/04 03:04:50;;;;;;;4.63;2.27;;;;;;;-2.18;92.08;98937.50;5132583;27;20237;-85
2023/04/04 03:07:18;;;;;;;2.37;2.17;;;;;;;-2.20;92.12;98937.50;5132567;27;20213;-85
2023/04/04 03:09:45;;;;;;;3.10;2.90;;;;;;;-2.21;92.32;98940.97;5132460;27;20205;-85
2023/04/04 03:12:11;;;;;;;2.73;2.10;;;;;;;-2.21;92.13;98937.53;5132761;27;20209;-85
2023/04/04 03:14:38;;;;;;;4.00;2.53;;;;;;;-2.26;92.52;98939.28;5132599;27;20574;-85
2023/04/04 03:17:05;;;;;;;3.73;2.33;;;;;;;-2.29;92.71;98936.69;5132464;27;20636;-85
2023/04/04 03:19:31;;;;;;;3.00;2.70;;;;;;;-2.25;92.85;98935.81;5132077;27;20205;-85
2023/04/04 03:21:58;;;;;;;4.40;2.70;;;;;;;-2.27;92.65;98934.97;5132742;27;20213;-84
2023/04/04 03:24:27;;;;;;;5.73;2.43;;;;;;;-2.19;92.62;98931.47;5132715;27;20225;-85
2023/04/04 03:26:53;;;;;;;3.17;2.40;;;;;;;-2.08;91.64;98939.16;5132578;27;20245;-84
2023/04/04 03:29:20;;;;;;;2.70;2.50;;;;;;;-2.07;90.68;98926.22;5131717;27;20435;-85
2023/04/04 03:31:46;;;;;;;2.80;2.40;;;;;;;-2.14;89.84;98928.84;5132265;27;20205;-84
2023/04/04 03:34:13;;;;;;;2.57;2.37;;;;;;;-2.11;89.68;98928.81;5132292;27;20607;-84
2023/04/04 03:36:40;;;;;;;3.63;2.50;;;;;;;-2.14;90.32;98924.50;5132474;27;20257;-85
2023/04/04 03:39:06;;;;;;;2.37;2.17;;;;;;;-2.17;90.28;98934.03;5132128;27;20658;-85
2023/04/04 03:41:35;;;;;;;5.10;2.60;;;;;;;-2.17;90.59;98923.66;5132301;27;20205;-85
2023/04/04 03:44:03;;;;;;;2.60;2.40;;;;;;;-2.15;90.13;98924.53;5132658;27;20201;-85
2023/04/04 03:46:30;;;;;;;2.50;2.30;;;;;;;-2.20;90.46;98928.88;5132064;27;20212;-85
2023/04/04 03:48:56;;;;;;;6.13;2.60;;;;;;;-2.28;90.37;98923.75;5132107;27;20217;-85
2023/04/04 03:51:24;;;;;;;3.47;2.60;;;;;;;-2.30;91.31;98932.38;5131588;27;20616;-84
2023/04/04 03:53:50;;;;;;;4.23;2.50;;;;;;;-2.36;91.43;98933.31;5132396;28;20213;-85
2023/04/04 03:56:17;;;;;;;5.47;2.50;;;;;;;-2.29;91.89;98926.34;5131946;28;20216;-85
2023/04/04 03:58:45;;;;;;;4.37;2.67;;;;;;;-2.38;91.79;98934.16;5132168;28;20208;-85
2023/04/04 04:01:11;;;;;;;2.83;2.63;;;;;;;-2.37;91.54;98934.16;5131482;28;20201;-85
2023/04/04 04:03:38;;;;;;;3.70;2.90;;;;;;;-2.36;91.65;98928.13;5132018;28;20228;-85
2023/04/04 04:06:05;;;;;;;4.33;2.73;;;;;;;-2.27;91.38;98932.38;5134870;27;20256;-85
2023/04/04 04:08:31;;;;;;;5.80;2.87;;;;;;;-2.31;91.15;98928.09;5136946;27;20292;-85
2023/04/04 04:11:03;;;;;;;2.43;2.23;;;;;;;-2.38;91.52;98921.22;5135466;27;20556;-86
2023/04/04 04:13:30;;;;;;;3.53;2.87;;;;;;;-2.46;92.61;98929.03;5136387;27;20205;-85
2023/04/04 04:15:58;;;;;;;3.30;2.63;;;;;;;-2.53;93.34;98929.94;5136059;27;20233;-85
2023/04/04 04:18:24;;;;;;;3.77;2.90;;;;;;;-2.57;93.90;98935.97;5135909;27;20201;-85
2023/04/04 04:20:51;;;;;;;4.10;3.00;;;;;;;-2.58;94.24;98938.59;5135685;27;20569;-85
2023/04/04 04:23:17;;;;;;;6.50;3.37;;;;;;;-2.61;94.84;98942.06;5135832;27;20554;-84
2023/04/04 04:25:47;;;;;;;3.23;2.93;;;;;;;-2.60;95.09;98937.72;5135948;27;20301;-85
2023/04/04 04:28:14;;;;;;;3.37;2.80;;;;;;;-2.63;95.39;98940.34;5135957;27;20205;-85
2023/04/04 04:30:40;;;;;;;3.60;2.77;;;;;;;-2.64;95.33;98946.41;5135201;27;20201;-85
2023/04/04 04:33:08;;;;;;;3.13;2.80;;;;;;;-2.68;96.09;98939.50;5135510;27;20212;-85
2023/04/04 04:35:36;;;;;;;4.57;3.23;;;;;;;-2.73;96.85;98938.66;5135437;27;20243;-85
2023/04/04 04:38:03;;;;;;;5.23;3.10;;;;;;;-2.73;97.01;98942.13;5135618;27;20268;-85
2023/04/04 04:40:29;;;;;;;3.87;2.90;;;;;;;-2.75;97.56;98940.41;5134701;27;20224;-85
2023/04/04 04:42:56;;;;;;;4.13;3.17;;;;;;;-2.66;97.20;98935.16;5135576;27;20210;-85
2023/04/04 04:45:22;;;;;;;3.93;3.07;;;;;;;-2.68;96.84;98940.38;5135443;27;20218;-84
2023/04/04 04:47:49;;;;;;;5.37;3.40;;;;;;;-2.72;96.48;98942.97;5135448;27;20211;-85
2023/04/04 04:50:17;;;;;;;3.43;3.10;;;;;;;-2.75;96.51;98942.97;5134897;27;20213;-84
2023/04/04 04:52:43;;;;;;;5.07;3.10;;;;;;;-2.75;97.12;98948.16;5135343;27;20210;-85
2023/04/04 04:55:11;;;;;;;4.50;3.30;;;;;;;-2.75;96.84;98940.41;5135475;27;20240;-85
2023/04/04 04:57:38;;;;;;;3.83;3.17;;;;;;;-2.74;97.04;98940.41;5135255;27;20675;-85
2023/04/04 05:00:05;;;;;;;6.17;3.07;;;;;;;-2.73;97.19;98947.28;5134444;27;20216;-85
2023/04/04 05:02:32;;;;;;;3.83;3.40;;;;;;;-2.64;96.79;98941.22;5135001;27;20591;-85
2023/04/04 05:04:58;;;;;;;7.00;3.53;;;;;;;-2.44;96.06;98949.75;5134981;27;20234;-85
2023/04/04 05:07:27;;;;;;;4.30;3.13;;;;;;;-2.39;96.13;98945.41;5135423;27;20205;-85
2023/04/04 05:09:53;;;;;;;4.03;2.97;;;;;;;-2.28;95.84;98947.06;5134366;27;20292;-85
2023/04/04 05:12:19;;;;;;;3.67;3.03;;;;;;;-2.19;94.74;98941.84;5134845;27;20216;-85
2023/04/04 05:14:46;;;;;;;3.27;2.97;;;;;;;-2.10;94.38;98944.34;5134793;27;20580;-85
2023/04/04 05:17:12;;;;;;;4.53;3.00;;;;;;;-2.08;93.38;98945.19;5134143;27;20465;-85
2023/04/04 05:19:39;;;;;;;6.30;3.50;;;;;;;-2.13;92.99;98940.91;5134114;27;20214;-84
2023/04/04 05:22:07;;;;;;;3.77;3.30;;;;;;;-2.16;94.23;98951.28;5134848;27;20265;-85
2023/04/04 05:24:35;;;;;;;5.47;3.60;;;;;;;-2.01;93.85;98951.19;5134614;27;20226;-84
2023/04/04 05:27:01;;;;;;;5.70;3.40;;;;;;;-1.99;94.22;98950.31;5134780;27;20213;-85
2023/04/04 05:29:28;;;;;;;5.17;3.60;;;;;;;-1.93;94.52;98952.00;5134333;27;20232;-84
2023/04/04 05:31:54;;;;;;;5.07;3.60;;;;;;;-1.96;95.29;98959.81;5134760;27;20694;-84
2023/04/04 05:34:21;;;;;;;5.13;3.17;;;;;;;-1.90;95.71;98965.78;5134502;27;20615;-85
2023/04/04 05:36:47;;;;;;;5.07;3.70;;;;;;;-1.82;95.64;98957.97;5134824;27;20448;-85
2023/04/04 05:39:14;;;;;;;5.80;3.90;;;;;;;-1.76;94.99;98952.72;5133832;27;20215;-85
2023/04/04 05:41:42;;;;;;;5.77;3.20;;;;;;;-1.65;94.27;98958.69;5134458;27;20736;-83
2023/04/04 05:44:08;;;;;;;5.40;3.57;;;;;;;-1.53;93.76;98956.84;5134587;27;20225;-78
2023/04/04 05:46:35;;;;;;;5.20;3.50;;;;;;;-1.41;93.06;98950.72;5134409;27;20209;-84
2023/04/04 05:49:01;;;;;;;5.33;3.60;;;;;;;-1.29;91.66;98948.84;5134085;27;20205;-83
2023/04/04 05:51:28;;;;;;;5.80;3.47;;;;;;;-1.20;90.35;98950.50;5133974;27;20675;-83
2023/04/04 05:53:55;;;;;;;5.63;3.50;;;;;;;-1.16;89.64;98947.00;5134303;27;20212;-84
2023/04/04 05:56:23;;;;;;;5.43;3.47;;;;;;;-1.00;88.38;98943.38;5134098;27;20223;-86
2023/04/04 05:58:51;;;;;;;6.67;3.57;;;;;;;-0.93;87.60;98934.66;5134041;27;20691;-87
2023/04/04 06:01:18;;;;;;;4.83;3.77;;;;;;;-0.77;86.47;98941.38;5133374;27;20207;-86
2023/04/04 06:03:44;;;;;;;5.53;3.53;;;;;;;-0.62;85.62;98936.00;5133917;27;20242;-87
2023/04/04 06:06:11;;;;;;;5.17;3.00;;;;;;;-0.50;84.60;98930.66;5133831;27;20210;-86
2023/04/04 06:08:37;;;;;;;4.43;2.87;;;;;;;-0.45;83.53;98928.88;5134139;27;20201;-85
2023/04/04 06:11:04;;;;;;;5.33;3.50;;;;;;;-0.46;82.48;98924.53;5133261;27;20217;-85
2023/04/04 06:13:30;;;;;;;4.33;3.63;;;;;;;-0.47;82.63;98928.88;5133777;27;20230;-84
2023/04/04 06:15:58;;;;;;;4.63;4.10;;;;;;;-0.45;82.98;98932.31;5133416;27;20235;-86
2023/04/04 06:18:25;;;;;;;6.10;3.97;;;;;;;-0.37;82.80;98935.66;5133765;27;20210;-86
2023/04/04 06:20:51;;;;;;;4.33;3.93;;;;;;;-0.28;82.33;98935.53;5133037;27;20217;-85
2023/04/04 06:23:18;;;;;;;8.10;3.77;;;;;;;-0.23;82.28;98935.47;5133645;27;20604;-77
2023/04/04 06:25:44;;;;;;;4.37;3.37;;;;;;;-0.14;81.85;98924.97;5133278;27;20249;-82
2023/04/04 06:28:14;;;;;;;3.63;3.20;;;;;;;-0.07;81.65;98928.31;5132569;27;20210;-83
2023/04/04 06:30:41;;;;;;;6.03;3.47;;;;;;;0.01;81.37;98923.84;5132581;27;20299;-82
2023/04/04 06:33:09;;;;;;;5.00;3.83;;;;;;;0.14;79.24;98927.97;5133534;27;20205;-82
2023/04/04 06:35:35;;;;;;;4.33;3.43;;;;;;;0.32;78.56;98912.06;5133193;27;20354;-84
2023/04/04 06:38:03;;;;;;;6.07;3.70;;;;;;;0.42;78.89;98916.25;5133121;27;20210;-83
2023/04/04 06:40:29;;;;;;;4.33;3.73;;;;;;;0.50;76.18;98906.56;5132494;27;20210;-84
2023/04/04 06:42:57;;;;;;;4.97;3.37;;;;;;;0.58;74.83;98909.91;5132943;27;20206;-84
2023/04/04 06:45:23;;;;;;;6.00;3.20;;;;;;;0.65;75.63;98906.31;5133301;27;20232;-80
2023/04/04 06:47:52;;;;;;;3.53;2.90;;;;;;;0.69;74.42;98914.91;5133181;27;20211;-80
2023/04/04 06:50:20;;;;;;;5.63;3.37;;;;;;;0.71;74.99;98908.81;5132206;27;20209;-79
2023/04/04 06:52:46;;;;;;;4.97;3.43;;;;;;;0.82;76.28;98919.00;5132954;27;20207;-79
2023/04/04 06:55:13;;;;;;;4.23;3.40;;;;;;;0.94;74.69;98909.25;5132639;27;20234;-81
2023/04/04 06:57:40;;;;;;;5.23;4.17;;;;;;;0.99;73.51;98899.56;5132204;27;20201;-80
2023/04/04 07:00:09;;;;;;;3.57;3.10;;;;;;;1.11;72.27;98896.75;5131977;27;20222;-82
2023/04/04 07:02:35;;;;;;;5.63;3.63;;;;;;;1.15;71.96;98888.00;5132047;27;20257;-83
2023/04/04 07:05:03;;;;;;;3.33;3.03;;;;;;;1.29;71.27;98891.16;5132341;27;20232;-82
2023/04/04 07:07:31;;;;;;;5.43;3.40;;;;;;;1.42;69.96;98884.81;5132729;27;20694;-80
2023/04/04 07:09:57;;;;;;;4.20;3.73;;;;;;;1.48;69.39;98887.28;5131969;27;20300;-80
2023/04/04 07:12:26;;;;;;;4.77;3.63;;;;;;;1.52;69.82;98888.06;5132469;27;20242;-80
2023/04/04 07:14:53;;;;;;;3.80;3.27;;;;;;;1.74;68.22;98879.78;5132282;27;20229;-83
2023/04/04 07:17:19;;;;;;;5.80;3.53;;;;;;;1.75;65.59;98864.97;5131988;27;20216;-79
2023/04/04 07:19:46;;;;;;;3.93;3.00;;;;;;;1.81;65.89;98870.91;5131689;27;20237;-80
2023/04/04 07:22:13;;;;;;;3.50;3.20;;;;;;;1.91;66.96;98877.63;5132493;27;20211;-79
2023/04/04 07:24:41;;;;;;;3.50;3.03;;;;;;;2.00;65.15;98869.59;5132184;27;20748;-78
2023/04/04 07:27:08;;;;;;;5.20;3.10;;;;;;;2.09;64.98;98871.97;5132540;27;20204;-81
2023/04/04 07:29:35;;;;;;;3.97;3.20;;;;;;;2.16;64.36;98867.47;5131770;27;20296;-81
2023/04/04 07:32:02;;;;;;;4.13;3.07;;;;;;;2.22;63.30;98862.09;5132503;27;20697;-77
2023/04/04 07:34:29;;;;;;;4.40;3.03;;;;;;;2.43;62.32;98851.13;5132787;27;20225;-83
2023/04/04 07:36:55;;;;;;;4.23;2.90;;;;;;;2.49;62.69;98849.22;5132045;27;20225;-83
2023/04/04 07:39:22;;;;;;;4.53;3.13;;;;;;;2.58;61.94;98851.59;5131298;27;20221;-83
2023/04/04 07:41:50;;;;;;;5.20;2.97;;;;;;;2.67;62.18;98856.56;5132581;27;20387;-84
2023/04/04 07:44:16;;;;;;;3.13;2.60;;;;;;;2.76;62.46;98856.31;5132149;27;20234;-81
2023/04/04 07:46:43;;;;;;;3.57;2.70;;;;;;;2.95;61.99;98848.84;5132146;27;20497;-81
2023/04/04 07:49:10;;;;;;;5.93;3.10;;;;;;;3.00;60.74;98850.44;5131401;27;20204;-81
2023/04/04 07:51:38;;;;;;;4.03;3.07;;;;;;;3.12;60.84;98846.63;5132244;27;20751;-80
2023/04/04 07:54:05;;;;;;;4.67;2.50;;;;;;;3.14;58.99;98827.41;5132311;28;20307;-81
2023/04/04 07:56:31;;;;;;;3.87;2.50;;;;;;;3.30;59.20;98828.66;5132331;28;20236;-81
2023/04/04 07:58:59;;;;;;;3.47;2.60;;;;;;;3.39;58.40;98828.41;5132090;28;20563;-81
2023/04/04 08:01:26;;;;;;;3.00;2.60;;;;;;;3.46;58.67;98829.06;5131671;28;20673;-78
2023/04/04 08:03:54;;;;;;;2.37;2.17;;;;;;;3.62;60.99;98851.22;5131900;28;20212;-80
2023/04/04 08:06:21;;;;;;;4.23;2.37;;;;;;;3.82;59.90;98836.66;5116008;22;20334;-77
2023/04/04 08:08:47;;;;;;;2.67;2.20;;;;;;;3.90;57.79;98821.56;5091624;28;20218;-77
2023/04/04 08:11:14;;;;;;;4.07;2.33;;;;;;;3.86;56.57;98806.84;5091063;28;20206;-78
2023/04/04 08:13:40;;;;;;;4.43;2.40;;;;;;;3.99;57.92;98820.41;5091616;28;20705;-77
2023/04/04 08:16:08;;;;;;;3.73;2.37;;;;;;;4.00;56.82;98807.28;5091652;28;20253;-82
2023/04/04 08:18:35;;;;;;;4.03;2.57;;;;;;;3.99;55.58;98805.59;5091530;28;20209;-82
2023/04/04 08:21:01;;;;;;;3.40;2.13;;;;;;;4.11;56.48;98815.66;5090616;28;20716;-82
2023/04/04 08:23:28;;;;;;;3.83;2.60;;;;;;;4.18;56.75;98825.00;5091227;28;20210;-82
2023/04/04 08:25:55;;;;;;;3.03;2.20;;;;;;;4.19;55.74;98805.78;5091974;28;20244;-82
2023/04/04 08:28:22;;;;;;;2.40;2.10;;;;;;;4.21;55.65;98809.19;5093621;28;20541;-82
2023/04/04 08:30:48;;;;;;;4.80;2.70;;;;;;;4.32;55.61;98809.69;5091270;28;20243;-82
2023/04/04 08:33:16;;;;;;;2.73;2.50;;;;;;;4.30;56.47;98821.13;5091428;28;20214;-82
2023/04/04 08:35:43;;;;;;;3.07;2.40;;;;;;;4.33;56.13;98819.25;5090721;28;20700;-82
2023/04/04 08:38:09;;;;;;;4.67;2.40;;;;;;;4.22;55.69;98823.13;5090949;28;20384;-82
2023/04/04 08:40:37;;;;;;;3.00;2.50;;;;;;;3.97;54.20;98802.16;5090490;28;20213;-82
2023/04/04 08:43:05;;;;;;;2.87;2.43;;;;;;;3.97;55.45;98804.75;5091019;28;20297;-82
2023/04/04 08:45:32;;;;;;;2.70;2.50;;;;;;;4.17;57.16;98831.13;5090932;28;20274;-82
2023/04/04 08:48:01;;;;;;;4.20;2.73;;;;;;;4.28;54.82;98802.84;5091042;28;20299;-82
2023/04/04 08:50:29;;;;;;;3.37;2.60;;;;;;;4.33;55.35;98814.00;5090242;28;20224;-82
2023/04/04 08:52:58;;;;;;;3.47;2.37;;;;;;;4.61;56.84;98827.88;5093760;28;20225;-82
2023/04/04 08:55:25;;;;;;;3.03;2.67;;;;;;;4.82;57.46;98837.59;5094467;28;20260;-82
2023/04/04 08:57:52;;;;;;;3.03;2.50;;;;;;;4.75;53.90;98803.81;5094602;28;20212;-82
2023/04/04 09:00:20;;;;;;;5.10;3.10;;;;;;;4.48;53.21;98783.84;5093696;28;20210;-82
2023/04/04 09:02:53;;;;;;;3.87;2.60;;;;;;;4.32;53.08;98786.16;5094351;28;20244;-82
2023/04/04 09:05:21;;;;;;;3.77;2.60;;;;;;;4.21;53.08;98795.28;5094475;28;20236;-82
2023/04/04 09:07:52;;;;;;;3.17;2.63;;;;;;;4.19;53.39;98787.47;5094678;28;20699;-82
2023/04/04 09:10:19;;;;;;;3.17;2.43;;;;;;;4.25;53.94;98807.31;5094027;28;20747;-82
2023/04/04 09:12:47;;;;;;;3.57;3.00;;;;;;;4.25;54.14;98808.19;5094303;28;20298;-82
2023/04/04 09:15:14;;;;;;;4.23;3.07;;;;;;;4.29;53.96;98804.53;5094160;28;20233;-82
2023/04/04 09:17:41;;;;;;;2.97;2.33;;;;;;;4.25;52.28;98792.50;5094150;28;20230;-82
2023/04/04 09:20:35;;;;;;;2.97;2.63;;;;;;;4.20;53.51;98798.75;5093567;28;20206;-82
2023/04/04 09:23:05;;;;;;;2.67;2.47;;;;;;;4.13;53.36;98792.91;5094269;28;20305;-82
2023/04/04 09:25:31;;;;;;;5.53;2.53;;;;;;;4.36;56.93;98834.00;5094088;28;20241;-82
2023/04/04 09:27:58;;;;;;;5.17;2.73;;;;;;;4.48;53.66;98813.50;5093995;28;20650;-82
2023/04/04 09:30:25;;;;;;;5.40;2.70;;;;;;;4.66;53.01;98802.41;5093188;28;20317;-82
2023/04/04 09:32:52;;;;;;;3.47;2.60;;;;;;;5.01;53.17;98801.97;5093723;28;20578;-81
2023/04/04 09:35:20;;;;;;;2.67;2.47;;;;;;;5.16;53.02;98801.44;5094011;28;20241;-81
2023/04/04 09:37:46;;;;;;;3.00;2.57;;;;;;;5.26;53.49;98804.56;5093887;28;20236;-82
2023/04/04 09:40:16;;;;;;;4.40;3.00;;;;;;;5.48;53.12;98808.06;5093076;28;20206;-82
2023/04/04 09:42:43;;;;;;;3.53;2.60;;;;;;;5.59;52.49;98796.25;5093748;28;20220;-82
2023/04/04 09:45:10;;;;;;;5.63;2.53;;;;;;;5.82;51.89;98803.25;5093845;28;20231;-82
2023/04/04 09:47:41;;;;;;;2.67;2.20;;;;;;;5.93;51.35;98794.03;5093792;28;20217;-81
2023/04/04 09:50:08;;;;;;;3.38;3.00;;;;;;;6.13;52.06;98801.97;5090372;28;20900;-81
2023/04/04 09:52:35;;;;;;;3.83;2.90;;;;;;;6.18;50.19;98784.22;5090806;28;20211;-82
2023/04/04 09:55:03;;;;;;;3.43;2.43;;;;;;;6.12;49.71;98771.38;5093121;28;20238;-76
2023/04/04 09:57:32;;;;;;;3.27;2.67;;;;;;;6.27;52.49;98802.25;5092114;28;20236;-76
2023/04/04 10:00:00;;;;;;;3.10;2.80;;;;;;;6.32;51.75;98795.03;5092331;28;20699;-77
2023/04/04 10:02:27;;;;;;;2.80;2.37;;;;;;;6.49;51.37;98803.06;5093395;28;20579;-76
2023/04/04 10:04:56;;;;;;;3.60;2.87;;;;;;;6.51;50.64;98790.72;5093124;28;20238;-79
2023/04/04 10:07:22;;;;;;;2.87;2.57;;;;;;;6.48;48.96;98769.00;5093109;28;20246;-76
2023/04/04 10:09:51;;;;;;;2.77;2.43;;;;;;;6.41;49.50;98757.03;5092458;28;20214;-77
2023/04/04 10:12:22;;;;;;;3.20;2.90;;;;;;;6.51;50.73;98790.72;5093416;28;20207;-77
2023/04/04 10:14:56;;;;;;;3.03;2.40;;;;;;;6.54;47.77;98763.47;5093222;28;20224;-77
2023/04/04 10:17:23;;;;;;;3.47;2.50;;;;;;;6.53;50.03;98775.72;5092985;28;20716;-76
2023/04/04 10:19:51;;;;;;;2.60;2.37;;;;;;;6.61;50.77;98792.03;5092228;28;20264;-76
2023/04/04 10:22:21;;;;;;;3.33;2.40;;;;;;;6.59;48.71;98757.09;5092890;28;20215;-77
2023/04/04 10:24:47;;;;;;;4.73;2.80;;;;;;;6.58;49.37;98768.53;5093212;28;20317;-76
2023/04/04 10:27:15;;;;;;;7.67;3.03;;;;;;;6.69;49.71;98779.41;5093113;28;20203;-76
2023/04/04 10:29:41;;;;;;;3.63;3.33;;;;;;;6.63;50.06;98782.31;5092233;28;20261;-76
2023/04/04 10:32:12;;;;;;;3.80;2.30;;;;;;;6.60;48.87;98766.66;5093150;28;20208;-76
2023/04/04 10:34:44;;;;;;;4.47;2.47;;;;;;;6.53;47.56;98738.97;5092720;28;20206;-76
2023/04/04 10:37:15;;;;;;;3.17;2.60;;;;;;;6.50;47.18;98730.38;5092776;28;20238;-77
2023/04/04 10:39:50;;;;;;;3.07;2.77;;;;;;;6.48;49.36;98766.38;5092165;28;20215;-76
2023/04/04 10:42:19;;;;;;;3.53;2.60;;;;;;;6.53;47.87;98746.84;5092706;28;20206;-80
2023/04/04 10:44:46;;;;;;;4.30;2.20;;;;;;;6.49;44.70;98692.78;5092711;28;20232;-77
2023/04/04 10:47:20;;;;;;;4.37;2.83;;;;;;;6.44;47.92;98744.63;5092565;28;20635;-78
2023/04/04 10:49:49;;;;;;;2.87;2.67;;;;;;;6.58;49.75;98763.25;5092779;28;20555;-78
2023/04/04 10:52:18;;;;;;;3.67;2.70;;;;;;;6.70;49.11;98760.09;5092705;28;20207;-78
2023/04/04 10:54:45;;;;;;;3.00;2.50;;;;;;;6.76;48.71;98754.59;5092875;28;20595;-78
2023/04/04 10:57:12;;;;;;;3.17;2.50;;;;;;;6.91;48.56;98748.63;5092884;28;20730;-78
2023/04/04 10:59:57;;;;;;;4.77;3.10;;;;;;;6.96;47.28;98744.03;5091749;28;20288;-78
2023/04/04 11:02:45;;;;;;;3.67;2.80;;;;;;;6.82;48.03;98735.06;5092710;28;20217;-78
2023/04/04 11:05:12;;;;;;;3.03;2.70;;;;;;;6.98;50.66;98765.00;5092335;28;20246;-78
2023/04/04 11:07:40;;;;;;;2.63;2.33;;;;;;;7.11;47.46;98732.84;5092416;28;20207;-78
2023/04/04 11:10:14;;;;;;;3.83;2.57;;;;;;;7.04;46.51;98712.16;5091768;28;20206;-78
2023/04/04 11:12:44;;;;;;;7.97;3.23;;;;;;;7.15;48.90;98744.91;5092419;28;20206;-78
2023/04/04 11:15:13;;;;;;;4.63;3.33;;;;;;;7.23;47.28;98719.13;5091619;28;20227;-78
2023/04/04 11:18:06;;;;;;;3.00;2.50;;;;;;;7.26;48.12;98731.28;5092170;28;20578;-78
2023/04/04 11:20:34;;;;;;;4.70;3.47;;;;;;;7.22;46.76;98715.63;5091561;28;20207;-76
2023/04/04 11:23:06;;;;;;;3.97;2.73;;;;;;;7.16;46.70;98707.19;5092307;28;20203;-80
2023/04/04 11:25:40;;;;;;;4.37;2.90;;;;;;;7.25;47.45;98722.53;5092553;28;20238;-80
2023/04/04 11:28:09;;;;;;;2.87;2.53;;;;;;;7.36;48.18;98731.59;5091964;28;20271;-79
2023/04/04 11:30:43;;;;;;;4.37;2.70;;;;;;;7.40;44.83;98708.66;5091800;28;20207;-79
2023/04/04 11:33:14;;;;;;;2.90;2.60;;;;;;;7.20;45.81;98706.09;5092816;28;20214;-80
2023/04/04 11:35:45;;;;;;;4.63;2.73;;;;;;;7.32;46.85;98723.09;5092425;28;20226;-77
2023/04/04 11:38:13;;;;;;;2.70;2.50;;;;;;;7.36;46.90;98731.59;5092162;28;20620;-76